Huvudsida
METAR-TAF:

METAR-TAF

Flygplatser :

Bhubaneswar flygplats

Bhubaneswar, Indien

latitud: 20-14-40N, longitud: 85-49-04E, höjd: 45 m

Aktuellt väderrapport

Denna rapport gjordes för 1 timme och 3 minuter sedan, klockan 10:30 UTC
Vind 9 kt från syd
Temperatur 30°C
Fuktighet 59%
Tryck 1005 hPa
Sikt: 4000 m
Brutna moln på en höjd av 1800 ft
Få moln på en höjd av 3000 ft, Cumulonimbus.
Brutna moln på en höjd av 9000 ft
åska, lätt regn,

METAR: VEBS 241030Z 18009KT 4000 -TSRA BKN018 FEW030CB BKN090 30/21 Q1005 NOSIG

Tid: 17:03 (11:33 UTC)

Väderprognos

Denna rapport gjordes för 3 timmar och 33 minuter sedan, klockan 08:00 UTC
Prognos gäller från 24 kl. 09 UTC till 24 kl. 18 UTC
Vind 5 kt från syd/sydväst
Sikt: 5000 m
Få moln på en höjd av 2000 ft
torrdis,

TAF: VEBS 240800Z 2409/2418 21005KT 5000 HZ FEW020

Aktuella väderrapporter och prognoser från 4000 flygplatser (METAR- och TAF-rapporter).

De tillgängliga stationerna syns som gula och röda prickar på kartan.

För musen över prickarna för att se namnen på stationerna.

Klicka sedan för att få väderrapporter och prognoser.

För att ändra kartan: Klicka på de gröna knapparna med ett svart kors på för att zooma in; den gröna knappen med ett streck på för att zooma ut; eller på de gröna pilarna för angränsande kartor.


METAR-TAF: